Tarrants, Missouri
Current Conditions -  °F | °C
As of 6:55 AM on Saturday 25 Oct 2014 (Local Time) from KPPQ Reporting Station
Moderate Fog Moderate Fog  
Wind Chill: 15°   Ceiling: 200
Heat Index: 15°   Visibility: 0.25mi
Dew Point: 14°   Wind: 0mph
Humidity: 94%   Direction: NA
Pressure: 30.01"   Gusts: NA
Location:  39.321°N, 91.1912°W
Report Text: KPPQ 251155Z AUTO 00000KT 1/4SM FG VV002 15/14 A3001 RMK AO2 T01470137 10181 20135
Loading
Personal Weather Stations






























Interactive Weather Map
Tropical Storm Tracking
New forecast layout! Learn more

10-Day Weather Forecast

Advertisements
Track Severe Weather on mobile